sensor_id;sensor_type;location;lat;lon;timestamp;temperature;humidity
65072;DHT22;51663;52.310;17.016;2023-06-24T00:02:05;33.50;35.80
65072;DHT22;51663;52.310;17.016;2023-06-24T00:05:08;32.90;37.20
65072;DHT22;51663;52.310;17.016;2023-06-24T00:08:10;32.60;37.70
65072;DHT22;51663;52.310;17.016;2023-06-24T00:11:13;32.80;38.00
65072;DHT22;51663;52.310;17.016;2023-06-24T00:14:15;32.70;37.70
65072;DHT22;51663;52.310;17.016;2023-06-24T00:17:18;33.10;37.70
65072;DHT22;51663;52.310;17.016;2023-06-24T00:20:20;33.10;37.70
65072;DHT22;51663;52.310;17.016;2023-06-24T00:23:23;33.10;37.00
65072;DHT22;51663;52.310;17.016;2023-06-24T00:26:27;32.90;38.30
65072;DHT22;51663;52.310;17.016;2023-06-24T00:29:30;33.80;36.70
65072;DHT22;51663;52.310;17.016;2023-06-24T00:32:32;33.60;36.80
65072;DHT22;51663;52.310;17.016;2023-06-24T00:35:34;33.70;36.60
65072;DHT22;51663;52.310;17.016;2023-06-24T00:38:36;34.20;36.70
65072;DHT22;51663;52.310;17.016;2023-06-24T00:41:38;34.90;35.10
65072;DHT22;51663;52.310;17.016;2023-06-24T00:44:40;34.90;34.70
65072;DHT22;51663;52.310;17.016;2023-06-24T00:47:43;34.60;34.70
65072;DHT22;51663;52.310;17.016;2023-06-24T00:50:45;34.90;34.40
65072;DHT22;51663;52.310;17.016;2023-06-24T00:53:48;34.90;34.60
65072;DHT22;51663;52.310;17.016;2023-06-24T00:56:51;35.10;33.90
65072;DHT22;51663;52.310;17.016;2023-06-24T00:59:57;35.20;33.60
65072;DHT22;51663;52.310;17.016;2023-06-24T01:03:03;35.40;32.90
65072;DHT22;51663;52.310;17.016;2023-06-24T01:06:08;35.10;33.90
65072;DHT22;51663;52.310;17.016;2023-06-24T01:09:10;35.50;34.10
65072;DHT22;51663;52.310;17.016;2023-06-24T01:12:12;35.50;33.40
65072;DHT22;51663;52.310;17.016;2023-06-24T01:15:17;35.30;33.40
65072;DHT22;51663;52.310;17.016;2023-06-24T01:18:32;34.80;33.50
65072;DHT22;51663;52.310;17.016;2023-06-24T01:21:42;34.70;33.90
65072;DHT22;51663;52.310;17.016;2023-06-24T01:29:06;35.10;33.30
65072;DHT22;51663;52.310;17.016;2023-06-24T01:34:57;35.40;32.50
65072;DHT22;51663;52.310;17.016;2023-06-24T01:38:06;35.60;32.20
65072;DHT22;51663;52.310;17.016;2023-06-24T01:41:10;36.00;31.50
65072;DHT22;51663;52.310;17.016;2023-06-24T01:44:16;36.00;31.50
65072;DHT22;51663;52.310;17.016;2023-06-24T01:47:22;36.10;31.20
65072;DHT22;51663;52.310;17.016;2023-06-24T01:50:26;35.60;31.50
65072;DHT22;51663;52.310;17.016;2023-06-24T01:53:29;35.10;31.80
65072;DHT22;51663;52.310;17.016;2023-06-24T01:56:35;34.30;32.50
65072;DHT22;51663;52.310;17.016;2023-06-24T01:59:40;34.30;32.60
65072;DHT22;51663;52.310;17.016;2023-06-24T02:02:45;34.50;32.70
65072;DHT22;51663;52.310;17.016;2023-06-24T02:05:48;34.50;33.00
65072;DHT22;51663;52.310;17.016;2023-06-24T02:08:52;34.60;32.50
65072;DHT22;51663;52.310;17.016;2023-06-24T02:11:56;34.70;32.90
65072;DHT22;51663;52.310;17.016;2023-06-24T02:14:59;34.90;32.30
65072;DHT22;51663;52.310;17.016;2023-06-24T02:18:02;35.00;31.90
65072;DHT22;51663;52.310;17.016;2023-06-24T02:21:06;35.10;31.50
65072;DHT22;51663;52.310;17.016;2023-06-24T02:24:08;34.60;32.50
65072;DHT22;51663;52.310;17.016;2023-06-24T02:27:12;34.70;32.30
65072;DHT22;51663;52.310;17.016;2023-06-24T02:30:15;34.80;32.10
65072;DHT22;51663;52.310;17.016;2023-06-24T02:33:17;35.00;32.20
65072;DHT22;51663;52.310;17.016;2023-06-24T02:36:19;35.20;32.00
65072;DHT22;51663;52.310;17.016;2023-06-24T02:39:22;35.60;31.30
65072;DHT22;51663;52.310;17.016;2023-06-24T02:42:24;35.60;31.50
65072;DHT22;51663;52.310;17.016;2023-06-24T02:45:27;35.70;31.40
65072;DHT22;51663;52.310;17.016;2023-06-24T02:48:31;35.90;31.30
65072;DHT22;51663;52.310;17.016;2023-06-24T02:51:34;35.90;30.70
65072;DHT22;51663;52.310;17.016;2023-06-24T02:54:36;36.10;30.80
65072;DHT22;51663;52.310;17.016;2023-06-24T02:57:42;36.20;31.00
65072;DHT22;51663;52.310;17.016;2023-06-24T03:00:44;36.40;30.30
65072;DHT22;51663;52.310;17.016;2023-06-24T03:03:47;36.40;30.20
65072;DHT22;51663;52.310;17.016;2023-06-24T03:06:51;36.60;30.30
65072;DHT22;51663;52.310;17.016;2023-06-24T03:09:54;36.70;31.00
65072;DHT22;51663;52.310;17.016;2023-06-24T03:12:56;36.70;30.90
65072;DHT22;51663;52.310;17.016;2023-06-24T03:15:58;36.80;31.50
65072;DHT22;51663;52.310;17.016;2023-06-24T03:19:00;36.90;31.80
65072;DHT22;51663;52.310;17.016;2023-06-24T03:22:03;36.90;32.30
65072;DHT22;51663;52.310;17.016;2023-06-24T03:25:05;36.90;33.00
65072;DHT22;51663;52.310;17.016;2023-06-24T03:28:08;36.80;32.70
65072;DHT22;51663;52.310;17.016;2023-06-24T03:31:10;36.80;33.00
65072;DHT22;51663;52.310;17.016;2023-06-24T03:34:12;36.70;33.10
65072;DHT22;51663;52.310;17.016;2023-06-24T03:37:15;36.70;33.50
65072;DHT22;51663;52.310;17.016;2023-06-24T03:40:18;36.70;32.90
65072;DHT22;51663;52.310;17.016;2023-06-24T03:43:20;36.60;34.00
65072;DHT22;51663;52.310;17.016;2023-06-24T03:46:22;36.70;33.60
65072;DHT22;51663;52.310;17.016;2023-06-24T03:49:24;36.70;34.20
65072;DHT22;51663;52.310;17.016;2023-06-24T03:52:27;36.70;34.30
65072;DHT22;51663;52.310;17.016;2023-06-24T03:55:29;36.80;34.30
65072;DHT22;51663;52.310;17.016;2023-06-24T03:58:31;36.80;34.10
65072;DHT22;51663;52.310;17.016;2023-06-24T04:01:33;36.80;34.60
65072;DHT22;51663;52.310;17.016;2023-06-24T04:04:36;36.80;34.30
65072;DHT22;51663;52.310;17.016;2023-06-24T04:07:38;36.80;33.40
65072;DHT22;51663;52.310;17.016;2023-06-24T04:10:41;36.90;34.30
65072;DHT22;51663;52.310;17.016;2023-06-24T04:13:45;36.90;33.70
65072;DHT22;51663;52.310;17.016;2023-06-24T04:16:48;37.00;33.30
65072;DHT22;51663;52.310;17.016;2023-06-24T04:19:50;37.00;34.50
65072;DHT22;51663;52.310;17.016;2023-06-24T04:22:52;37.00;33.30
65072;DHT22;51663;52.310;17.016;2023-06-24T04:25:54;37.00;33.40
65072;DHT22;51663;52.310;17.016;2023-06-24T04:28:57;37.00;33.20
65072;DHT22;51663;52.310;17.016;2023-06-24T04:31:58;37.00;33.60
65072;DHT22;51663;52.310;17.016;2023-06-24T04:35:01;37.10;33.40
65072;DHT22;51663;52.310;17.016;2023-06-24T04:38:03;37.10;34.10
65072;DHT22;51663;52.310;17.016;2023-06-24T04:41:05;37.20;33.70
65072;DHT22;51663;52.310;17.016;2023-06-24T04:44:07;37.30;34.50
65072;DHT22;51663;52.310;17.016;2023-06-24T04:47:10;37.30;33.60
65072;DHT22;51663;52.310;17.016;2023-06-24T04:50:12;37.30;33.70
65072;DHT22;51663;52.310;17.016;2023-06-24T04:53:14;37.30;33.60
65072;DHT22;51663;52.310;17.016;2023-06-24T04:56:16;37.40;34.20
65072;DHT22;51663;52.310;17.016;2023-06-24T04:59:19;37.30;33.90
65072;DHT22;51663;52.310;17.016;2023-06-24T05:02:21;37.40;34.10
65072;DHT22;51663;52.310;17.016;2023-06-24T05:05:25;37.50;34.30
65072;DHT22;51663;52.310;17.016;2023-06-24T05:08:27;37.50;35.00
65072;DHT22;51663;52.310;17.016;2023-06-24T05:11:29;37.70;34.90
65072;DHT22;51663;52.310;17.016;2023-06-24T05:14:33;37.80;34.30
65072;DHT22;51663;52.310;17.016;2023-06-24T05:17:36;37.80;34.50
65072;DHT22;51663;52.310;17.016;2023-06-24T05:20:38;37.80;33.80
65072;DHT22;51663;52.310;17.016;2023-06-24T05:23:40;37.90;32.90
65072;DHT22;51663;52.310;17.016;2023-06-24T05:26:44;37.60;33.20
65072;DHT22;51663;52.310;17.016;2023-06-24T05:29:46;37.60;32.80
65072;DHT22;51663;52.310;17.016;2023-06-24T05:32:48;37.80;34.00
65072;DHT22;51663;52.310;17.016;2023-06-24T05:35:51;38.00;32.00
65072;DHT22;51663;52.310;17.016;2023-06-24T05:38:53;38.20;31.80
65072;DHT22;51663;52.310;17.016;2023-06-24T05:41:55;38.40;31.90
65072;DHT22;51663;52.310;17.016;2023-06-24T05:44:57;38.60;32.20
65072;DHT22;51663;52.310;17.016;2023-06-24T05:47:59;38.40;30.60
65072;DHT22;51663;52.310;17.016;2023-06-24T05:51:02;38.40;31.80
65072;DHT22;51663;52.310;17.016;2023-06-24T05:54:04;38.60;31.40
65072;DHT22;51663;52.310;17.016;2023-06-24T05:57:06;38.80;30.20
65072;DHT22;51663;52.310;17.016;2023-06-24T06:00:09;38.90;30.70
65072;DHT22;51663;52.310;17.016;2023-06-24T06:03:11;38.20;29.70
65072;DHT22;51663;52.310;17.016;2023-06-24T06:06:14;37.90;31.50
65072;DHT22;51663;52.310;17.016;2023-06-24T06:09:16;38.20;31.00
65072;DHT22;51663;52.310;17.016;2023-06-24T06:12:18;38.10;31.40
65072;DHT22;51663;52.310;17.016;2023-06-24T06:15:21;38.40;30.50
65072;DHT22;51663;52.310;17.016;2023-06-24T06:18:23;38.60;30.00
65072;DHT22;51663;52.310;17.016;2023-06-24T06:21:25;38.90;29.70
65072;DHT22;51663;52.310;17.016;2023-06-24T06:24:27;38.90;29.70
65072;DHT22;51663;52.310;17.016;2023-06-24T06:27:29;39.20;29.50
65072;DHT22;51663;52.310;17.016;2023-06-24T06:30:32;38.80;29.50
65072;DHT22;51663;52.310;17.016;2023-06-24T06:33:34;39.00;29.60
65072;DHT22;51663;52.310;17.016;2023-06-24T06:36:36;39.30;29.50
65072;DHT22;51663;52.310;17.016;2023-06-24T06:39:38;39.40;28.30
65072;DHT22;51663;52.310;17.016;2023-06-24T06:42:40;39.40;29.00
65072;DHT22;51663;52.310;17.016;2023-06-24T06:45:42;40.10;27.70
65072;DHT22;51663;52.310;17.016;2023-06-24T06:48:44;40.40;27.20
65072;DHT22;51663;52.310;17.016;2023-06-24T06:51:46;40.30;27.30
65072;DHT22;51663;52.310;17.016;2023-06-24T06:54:49;40.30;27.80
65072;DHT22;51663;52.310;17.016;2023-06-24T06:57:51;40.00;28.60
65072;DHT22;51663;52.310;17.016;2023-06-24T07:00:53;39.80;27.30
65072;DHT22;51663;52.310;17.016;2023-06-24T07:03:55;39.30;27.70
65072;DHT22;51663;52.310;17.016;2023-06-24T07:06:58;38.50;28.20
65072;DHT22;51663;52.310;17.016;2023-06-24T07:10:00;38.20;28.60
65072;DHT22;51663;52.310;17.016;2023-06-24T07:13:02;38.30;29.10
65072;DHT22;51663;52.310;17.016;2023-06-24T07:16:04;38.50;28.60
65072;DHT22;51663;52.310;17.016;2023-06-24T07:19:07;38.10;29.30
65072;DHT22;51663;52.310;17.016;2023-06-24T07:22:09;38.40;29.20
65072;DHT22;51663;52.310;17.016;2023-06-24T07:25:12;38.70;29.40
65072;DHT22;51663;52.310;17.016;2023-06-24T07:28:14;39.10;29.80
65072;DHT22;51663;52.310;17.016;2023-06-24T07:31:16;39.80;29.10
65072;DHT22;51663;52.310;17.016;2023-06-24T07:34:18;40.30;28.00
65072;DHT22;51663;52.310;17.016;2023-06-24T07:37:20;40.80;27.60
65072;DHT22;51663;52.310;17.016;2023-06-24T07:40:26;41.00;28.00
65072;DHT22;51663;52.310;17.016;2023-06-24T07:43:28;41.40;27.30
65072;DHT22;51663;52.310;17.016;2023-06-24T07:46:30;41.70;26.30
65072;DHT22;51663;52.310;17.016;2023-06-24T07:49:32;41.00;27.10
65072;DHT22;51663;52.310;17.016;2023-06-24T07:52:34;41.50;28.00
65072;DHT22;51663;52.310;17.016;2023-06-24T07:55:37;42.30;26.50
65072;DHT22;51663;52.310;17.016;2023-06-24T07:58:39;42.90;25.70
65072;DHT22;51663;52.310;17.016;2023-06-24T08:01:41;43.20;25.40
65072;DHT22;51663;52.310;17.016;2023-06-24T08:04:44;42.70;25.20
65072;DHT22;51663;52.310;17.016;2023-06-24T08:07:46;42.40;25.00
65072;DHT22;51663;52.310;17.016;2023-06-24T08:10:48;42.70;25.20
65072;DHT22;51663;52.310;17.016;2023-06-24T08:13:51;42.70;25.80
65072;DHT22;51663;52.310;17.016;2023-06-24T08:16:53;43.20;24.40
65072;DHT22;51663;52.310;17.016;2023-06-24T08:19:55;43.60;24.40
65072;DHT22;51663;52.310;17.016;2023-06-24T08:22:57;43.60;24.30
65072;DHT22;51663;52.310;17.016;2023-06-24T08:25:59;43.70;23.90
65072;DHT22;51663;52.310;17.016;2023-06-24T08:29:13;43.40;24.60
65072;DHT22;51663;52.310;17.016;2023-06-24T08:32:15;43.10;24.80
65072;DHT22;51663;52.310;17.016;2023-06-24T08:35:17;42.20;24.80
65072;DHT22;51663;52.310;17.016;2023-06-24T08:38:20;41.40;25.50
65072;DHT22;51663;52.310;17.016;2023-06-24T08:41:22;40.60;26.40
65072;DHT22;51663;52.310;17.016;2023-06-24T08:44:27;40.50;27.20
65072;DHT22;51663;52.310;17.016;2023-06-24T08:47:30;40.50;26.90
65072;DHT22;51663;52.310;17.016;2023-06-24T08:50:40;40.90;26.20
65072;DHT22;51663;52.310;17.016;2023-06-24T08:53:45;41.50;26.90
65072;DHT22;51663;52.310;17.016;2023-06-24T08:56:49;41.60;26.50
65072;DHT22;51663;52.310;17.016;2023-06-24T08:59:52;41.90;25.90
65072;DHT22;51663;52.310;17.016;2023-06-24T09:02:55;42.00;25.50
65072;DHT22;51663;52.310;17.016;2023-06-24T09:05:58;42.10;24.70
65072;DHT22;51663;52.310;17.016;2023-06-24T09:09:00;42.20;25.60
65072;DHT22;51663;52.310;17.016;2023-06-24T09:12:02;42.20;25.20
65072;DHT22;51663;52.310;17.016;2023-06-24T09:15:05;41.60;25.10
65072;DHT22;51663;52.310;17.016;2023-06-24T09:18:07;40.80;26.00
65072;DHT22;51663;52.310;17.016;2023-06-24T09:21:10;40.30;27.10
65072;DHT22;51663;52.310;17.016;2023-06-24T09:24:13;40.60;26.80
65072;DHT22;51663;52.310;17.016;2023-06-24T09:27:17;40.00;26.70
65072;DHT22;51663;52.310;17.016;2023-06-24T09:30:23;39.00;28.20
65072;DHT22;51663;52.310;17.016;2023-06-24T09:33:25;38.90;28.50
65072;DHT22;51663;52.310;17.016;2023-06-24T09:36:27;39.20;27.40
65072;DHT22;51663;52.310;17.016;2023-06-24T09:39:37;38.60;27.90
65072;DHT22;51663;52.310;17.016;2023-06-24T09:42:58;38.90;27.50
65072;DHT22;51663;52.310;17.016;2023-06-24T09:46:03;39.20;27.40
65072;DHT22;51663;52.310;17.016;2023-06-24T09:49:05;39.40;27.20
65072;DHT22;51663;52.310;17.016;2023-06-24T09:52:07;38.70;27.90
65072;DHT22;51663;52.310;17.016;2023-06-24T09:55:10;38.90;28.30
65072;DHT22;51663;52.310;17.016;2023-06-24T09:58:16;39.00;26.70
65072;DHT22;51663;52.310;17.016;2023-06-24T10:01:19;38.70;26.90
65072;DHT22;51663;52.310;17.016;2023-06-24T10:04:22;38.00;27.70
65072;DHT22;51663;52.310;17.016;2023-06-24T10:07:24;37.90;28.10
65072;DHT22;51663;52.310;17.016;2023-06-24T10:10:27;38.50;28.30
65072;DHT22;51663;52.310;17.016;2023-06-24T10:13:29;39.00;27.80
65072;DHT22;51663;52.310;17.016;2023-06-24T10:16:32;39.50;27.20
65072;DHT22;51663;52.310;17.016;2023-06-24T10:19:41;40.00;26.60
65072;DHT22;51663;52.310;17.016;2023-06-24T10:22:45;39.90;26.70
65072;DHT22;51663;52.310;17.016;2023-06-24T10:25:48;39.70;25.40
65072;DHT22;51663;52.310;17.016;2023-06-24T10:32:09;39.30;25.50
65072;DHT22;51663;52.310;17.016;2023-06-24T10:35:29;39.40;26.00
65072;DHT22;51663;52.310;17.016;2023-06-24T10:38:32;39.60;25.50
65072;DHT22;51663;52.310;17.016;2023-06-24T10:41:34;38.60;26.30
65072;DHT22;51663;52.310;17.016;2023-06-24T10:44:49;38.50;26.00
65072;DHT22;51663;52.310;17.016;2023-06-24T10:47:53;38.30;25.90
65072;DHT22;51663;52.310;17.016;2023-06-24T10:50:55;38.60;26.40
65072;DHT22;51663;52.310;17.016;2023-06-24T10:53:58;39.20;27.50
65072;DHT22;51663;52.310;17.016;2023-06-24T10:57:00;39.60;26.50
65072;DHT22;51663;52.310;17.016;2023-06-24T11:00:03;40.40;25.00
65072;DHT22;51663;52.310;17.016;2023-06-24T11:03:13;40.00;25.60
65072;DHT22;51663;52.310;17.016;2023-06-24T11:06:16;39.10;26.80
65072;DHT22;51663;52.310;17.016;2023-06-24T11:09:18;38.90;26.50
65072;DHT22;51663;52.310;17.016;2023-06-24T11:12:27;38.40;27.80
65072;DHT22;51663;52.310;17.016;2023-06-24T11:15:29;38.90;27.20
65072;DHT22;51663;52.310;17.016;2023-06-24T11:18:38;38.90;26.10
65072;DHT22;51663;52.310;17.016;2023-06-24T11:21:40;38.20;25.80
65072;DHT22;51663;52.310;17.016;2023-06-24T11:24:42;38.70;25.90
65072;DHT22;51663;52.310;17.016;2023-06-24T11:27:44;39.10;25.80
65072;DHT22;51663;52.310;17.016;2023-06-24T11:30:46;39.40;26.60
65072;DHT22;51663;52.310;17.016;2023-06-24T11:33:49;39.20;26.80
65072;DHT22;51663;52.310;17.016;2023-06-24T11:36:51;39.70;26.90
65072;DHT22;51663;52.310;17.016;2023-06-24T11:40:07;39.80;26.00
65072;DHT22;51663;52.310;17.016;2023-06-24T11:43:09;39.50;25.50
65072;DHT22;51663;52.310;17.016;2023-06-24T11:46:28;39.80;26.30
65072;DHT22;51663;52.310;17.016;2023-06-24T11:49:51;40.20;26.00
65072;DHT22;51663;52.310;17.016;2023-06-24T11:52:56;40.40;25.40
65072;DHT22;51663;52.310;17.016;2023-06-24T11:55:59;40.40;24.80
65072;DHT22;51663;52.310;17.016;2023-06-24T11:59:01;40.00;24.90
65072;DHT22;51663;52.310;17.016;2023-06-24T12:02:05;39.40;25.70
65072;DHT22;51663;52.310;17.016;2023-06-24T12:05:07;38.90;26.20
65072;DHT22;51663;52.310;17.016;2023-06-24T12:08:12;38.90;26.30
65072;DHT22;51663;52.310;17.016;2023-06-24T12:11:19;38.20;26.40
65072;DHT22;51663;52.310;17.016;2023-06-24T12:14:21;38.40;27.00
65072;DHT22;51663;52.310;17.016;2023-06-24T12:17:23;38.70;26.00
65072;DHT22;51663;52.310;17.016;2023-06-24T12:20:26;38.60;26.20
65072;DHT22;51663;52.310;17.016;2023-06-24T12:23:32;38.40;27.00
65072;DHT22;51663;52.310;17.016;2023-06-24T12:26:34;38.80;26.10
65072;DHT22;51663;52.310;17.016;2023-06-24T12:29:38;39.50;25.10
65072;DHT22;51663;52.310;17.016;2023-06-24T12:32:40;39.50;25.40
65072;DHT22;51663;52.310;17.016;2023-06-24T12:35:42;39.70;25.20
65072;DHT22;51663;52.310;17.016;2023-06-24T12:38:45;40.30;25.40
65072;DHT22;51663;52.310;17.016;2023-06-24T12:41:47;40.30;24.90
65072;DHT22;51663;52.310;17.016;2023-06-24T12:44:49;40.10;24.70
65072;DHT22;51663;52.310;17.016;2023-06-24T12:47:53;39.70;24.70
65072;DHT22;51663;52.310;17.016;2023-06-24T12:50:56;39.00;24.80
65072;DHT22;51663;52.310;17.016;2023-06-24T12:53:58;39.30;25.90
65072;DHT22;51663;52.310;17.016;2023-06-24T12:57:01;40.10;25.00
65072;DHT22;51663;52.310;17.016;2023-06-24T13:00:15;40.40;24.80
65072;DHT22;51663;52.310;17.016;2023-06-24T13:03:21;40.40;24.40
65072;DHT22;51663;52.310;17.016;2023-06-24T13:06:24;40.80;24.40
65072;DHT22;51663;52.310;17.016;2023-06-24T13:09:26;41.20;23.40
65072;DHT22;51663;52.310;17.016;2023-06-24T13:12:28;41.60;23.30
65072;DHT22;51663;52.310;17.016;2023-06-24T13:15:30;41.50;23.80
65072;DHT22;51663;52.310;17.016;2023-06-24T13:18:33;41.10;23.90
65072;DHT22;51663;52.310;17.016;2023-06-24T13:21:35;40.00;24.50
65072;DHT22;51663;52.310;17.016;2023-06-24T13:24:37;39.20;24.90
65072;DHT22;51663;52.310;17.016;2023-06-24T13:27:39;38.40;25.50
65072;DHT22;51663;52.310;17.016;2023-06-24T13:30:42;38.00;25.80
65072;DHT22;51663;52.310;17.016;2023-06-24T13:33:44;38.60;26.20
65072;DHT22;51663;52.310;17.016;2023-06-24T13:36:46;39.00;25.20
65072;DHT22;51663;52.310;17.016;2023-06-24T13:39:49;38.80;26.10
65072;DHT22;51663;52.310;17.016;2023-06-24T13:42:51;39.20;24.90
65072;DHT22;51663;52.310;17.016;2023-06-24T13:45:53;38.60;25.30
65072;DHT22;51663;52.310;17.016;2023-06-24T13:48:56;39.10;25.00
65072;DHT22;51663;52.310;17.016;2023-06-24T13:51:59;39.40;24.90
65072;DHT22;51663;52.310;17.016;2023-06-24T13:55:01;39.70;24.40
65072;DHT22;51663;52.310;17.016;2023-06-24T13:58:03;40.00;24.40
65072;DHT22;51663;52.310;17.016;2023-06-24T14:01:05;40.10;24.40
65072;DHT22;51663;52.310;17.016;2023-06-24T14:04:07;40.00;24.40
65072;DHT22;51663;52.310;17.016;2023-06-24T14:07:09;40.30;23.60
65072;DHT22;51663;52.310;17.016;2023-06-24T14:10:12;39.80;23.20
65072;DHT22;51663;52.310;17.016;2023-06-24T14:13:14;39.90;23.30
65072;DHT22;51663;52.310;17.016;2023-06-24T14:16:16;39.80;24.50
65072;DHT22;51663;52.310;17.016;2023-06-24T14:19:18;40.30;24.50
65072;DHT22;51663;52.310;17.016;2023-06-24T14:22:21;40.20;24.40
65072;DHT22;51663;52.310;17.016;2023-06-24T14:25:24;40.00;24.30
65072;DHT22;51663;52.310;17.016;2023-06-24T14:28:27;39.70;24.80
65072;DHT22;51663;52.310;17.016;2023-06-24T14:31:29;39.50;25.20
65072;DHT22;51663;52.310;17.016;2023-06-24T14:34:31;39.20;24.20
65072;DHT22;51663;52.310;17.016;2023-06-24T14:37:34;39.20;24.00
65072;DHT22;51663;52.310;17.016;2023-06-24T14:40:36;39.50;23.90
65072;DHT22;51663;52.310;17.016;2023-06-24T14:43:38;39.50;24.20
65072;DHT22;51663;52.310;17.016;2023-06-24T14:46:41;39.10;24.50
65072;DHT22;51663;52.310;17.016;2023-06-24T14:49:43;38.70;25.30
65072;DHT22;51663;52.310;17.016;2023-06-24T14:52:45;38.80;25.20
65072;DHT22;51663;52.310;17.016;2023-06-24T14:55:47;38.10;26.00
65072;DHT22;51663;52.310;17.016;2023-06-24T14:58:51;38.40;25.40
65072;DHT22;51663;52.310;17.016;2023-06-24T15:01:53;38.70;24.90
65072;DHT22;51663;52.310;17.016;2023-06-24T15:04:55;38.80;24.90
65072;DHT22;51663;52.310;17.016;2023-06-24T15:07:57;38.20;25.00
65072;DHT22;51663;52.310;17.016;2023-06-24T15:10:59;38.10;25.30
65072;DHT22;51663;52.310;17.016;2023-06-24T15:14:01;38.70;25.30
65072;DHT22;51663;52.310;17.016;2023-06-24T15:17:04;38.80;24.90
65072;DHT22;51663;52.310;17.016;2023-06-24T15:20:09;39.00;24.10
65072;DHT22;51663;52.310;17.016;2023-06-24T15:23:11;39.30;24.30
65072;DHT22;51663;52.310;17.016;2023-06-24T15:26:13;39.30;24.40
65072;DHT22;51663;52.310;17.016;2023-06-24T15:29:16;39.70;24.40
65072;DHT22;51663;52.310;17.016;2023-06-24T15:32:18;40.00;23.70
65072;DHT22;51663;52.310;17.016;2023-06-24T15:35:20;39.80;24.30
65072;DHT22;51663;52.310;17.016;2023-06-24T15:38:22;39.70;24.70
65072;DHT22;51663;52.310;17.016;2023-06-24T15:41:24;40.10;24.50
65072;DHT22;51663;52.310;17.016;2023-06-24T15:44:26;40.20;24.60
65072;DHT22;51663;52.310;17.016;2023-06-24T15:47:29;40.30;24.00
65072;DHT22;51663;52.310;17.016;2023-06-24T15:50:31;40.40;24.10
65072;DHT22;51663;52.310;17.016;2023-06-24T15:53:33;40.60;24.20
65072;DHT22;51663;52.310;17.016;2023-06-24T15:56:36;40.60;24.20
65072;DHT22;51663;52.310;17.016;2023-06-24T15:59:38;40.10;24.40
65072;DHT22;51663;52.310;17.016;2023-06-24T16:02:40;39.60;24.10
65072;DHT22;51663;52.310;17.016;2023-06-24T16:05:43;38.70;25.20
65072;DHT22;51663;52.310;17.016;2023-06-24T16:08:46;38.50;25.20
65072;DHT22;51663;52.310;17.016;2023-06-24T16:11:48;38.00;25.70
65072;DHT22;51663;52.310;17.016;2023-06-24T16:14:50;38.70;25.50
65072;DHT22;51663;52.310;17.016;2023-06-24T16:17:52;39.00;24.80
65072;DHT22;51663;52.310;17.016;2023-06-24T16:20:54;39.40;24.80
65072;DHT22;51663;52.310;17.016;2023-06-24T16:23:56;39.60;24.80
65072;DHT22;51663;52.310;17.016;2023-06-24T16:26:58;40.00;24.40
65072;DHT22;51663;52.310;17.016;2023-06-24T16:30:01;40.40;24.00
65072;DHT22;51663;52.310;17.016;2023-06-24T16:33:04;40.60;23.80
65072;DHT22;51663;52.310;17.016;2023-06-24T16:36:06;40.80;23.50
65072;DHT22;51663;52.310;17.016;2023-06-24T16:39:08;41.10;23.10
65072;DHT22;51663;52.310;17.016;2023-06-24T16:42:10;41.10;23.40
65072;DHT22;51663;52.310;17.016;2023-06-24T16:45:12;41.10;23.60
65072;DHT22;51663;52.310;17.016;2023-06-24T16:48:15;40.80;23.60
65072;DHT22;51663;52.310;17.016;2023-06-24T16:51:17;40.90;23.40
65072;DHT22;51663;52.310;17.016;2023-06-24T16:54:19;40.30;23.70
65072;DHT22;51663;52.310;17.016;2023-06-24T16:57:23;40.10;24.10
65072;DHT22;51663;52.310;17.016;2023-06-24T17:00:25;40.30;24.50
65072;DHT22;51663;52.310;17.016;2023-06-24T17:03:27;40.40;24.40
65072;DHT22;51663;52.310;17.016;2023-06-24T17:06:31;40.40;24.20
65072;DHT22;51663;52.310;17.016;2023-06-24T17:09:33;40.70;23.90
65072;DHT22;51663;52.310;17.016;2023-06-24T17:12:36;40.90;24.00
65072;DHT22;51663;52.310;17.016;2023-06-24T17:15:38;40.60;24.40
65072;DHT22;51663;52.310;17.016;2023-06-24T17:18:40;40.70;24.10
65072;DHT22;51663;52.310;17.016;2023-06-24T17:21:42;40.80;24.20
65072;DHT22;51663;52.310;17.016;2023-06-24T17:24:44;41.00;23.90
65072;DHT22;51663;52.310;17.016;2023-06-24T17:27:46;40.40;24.20
65072;DHT22;51663;52.310;17.016;2023-06-24T17:30:49;39.90;24.60
65072;DHT22;51663;52.310;17.016;2023-06-24T17:33:51;40.20;24.60
65072;DHT22;51663;52.310;17.016;2023-06-24T17:36:53;39.90;25.20
65072;DHT22;51663;52.310;17.016;2023-06-24T17:39:55;40.00;24.70
65072;DHT22;51663;52.310;17.016;2023-06-24T17:42:57;40.10;24.90
65072;DHT22;51663;52.310;17.016;2023-06-24T17:45:59;40.00;24.90
65072;DHT22;51663;52.310;17.016;2023-06-24T17:49:02;40.20;24.90
65072;DHT22;51663;52.310;17.016;2023-06-24T17:52:04;40.20;25.30
65072;DHT22;51663;52.310;17.016;2023-06-24T17:55:07;40.30;24.90
65072;DHT22;51663;52.310;17.016;2023-06-24T17:58:09;40.20;25.00
65072;DHT22;51663;52.310;17.016;2023-06-24T18:01:11;40.30;25.10
65072;DHT22;51663;52.310;17.016;2023-06-24T18:04:17;40.50;25.10
65072;DHT22;51663;52.310;17.016;2023-06-24T18:07:21;40.40;25.10
65072;DHT22;51663;52.310;17.016;2023-06-24T18:10:23;40.50;25.40
65072;DHT22;51663;52.310;17.016;2023-06-24T18:13:26;40.50;25.50
65072;DHT22;51663;52.310;17.016;2023-06-24T18:16:28;40.50;25.30
65072;DHT22;51663;52.310;17.016;2023-06-24T18:19:30;40.40;25.00
65072;DHT22;51663;52.310;17.016;2023-06-24T18:22:33;40.40;25.10
65072;DHT22;51663;52.310;17.016;2023-06-24T18:25:35;40.40;25.50
65072;DHT22;51663;52.310;17.016;2023-06-24T18:28:38;40.30;25.60
65072;DHT22;51663;52.310;17.016;2023-06-24T18:31:41;40.20;25.60
65072;DHT22;51663;52.310;17.016;2023-06-24T18:34:44;40.20;25.60
65072;DHT22;51663;52.310;17.016;2023-06-24T18:37:46;40.20;25.50
65072;DHT22;51663;52.310;17.016;2023-06-24T18:40:49;40.10;25.60
65072;DHT22;51663;52.310;17.016;2023-06-24T18:43:51;40.10;26.00
65072;DHT22;51663;52.310;17.016;2023-06-24T18:46:53;40.00;26.00
65072;DHT22;51663;52.310;17.016;2023-06-24T18:49:55;39.80;25.90
65072;DHT22;51663;52.310;17.016;2023-06-24T18:52:57;39.80;26.20
65072;DHT22;51663;52.310;17.016;2023-06-24T18:55:59;39.80;26.20
65072;DHT22;51663;52.310;17.016;2023-06-24T18:59:01;39.80;26.10
65072;DHT22;51663;52.310;17.016;2023-06-24T19:02:04;39.80;26.30
65072;DHT22;51663;52.310;17.016;2023-06-24T19:05:07;39.70;26.80
65072;DHT22;51663;52.310;17.016;2023-06-24T19:08:09;39.70;26.70